Time;durP1;ratioP1;P1;durP2;ratioP2;P2;SDS_P1;SDS_P2;PMS_P1;PMS_P2;Temp;Humidity;BMP_temperature;BMP_pressure;BME280_temperature;BME280_humidity;BME280_pressure;Samples;Min_cycle;Max_cycle;Signal;HPM_P1;HPM_P2
2023/08/28 00:02:19;;;;;;;6.50;3.50;;;;;;;29.00;45.40;99942.54;107842;1287;21990;-61
2023/08/28 00:04:45;;;;;;;6.40;3.50;;;;;;;28.99;45.29;99941.75;107839;1280;21988;-70
2023/08/28 00:07:10;;;;;;;8.10;3.30;;;;;;;28.99;45.28;99940.88;107798;1286;22052;-70
2023/08/28 00:09:36;;;;;;;6.40;3.60;;;;;;;28.98;45.50;99937.17;107831;1282;22028;-58
2023/08/28 00:12:02;;;;;;;4.00;3.00;;;;;;;28.97;45.38;99937.67;107820;1286;22031;-58
2023/08/28 00:14:28;;;;;;;5.50;3.80;;;;;;;28.95;45.70;99936.77;107843;1279;22306;-58
2023/08/28 00:16:54;;;;;;;8.90;3.20;;;;;;;28.91;45.90;99935.43;107814;1289;21997;-70
2023/08/28 00:19:20;;;;;;;5.60;3.50;;;;;;;28.89;45.80;99932.28;107643;1286;22030;-58
2023/08/28 00:21:45;;;;;;;6.30;3.40;;;;;;;28.89;45.43;99935.33;107878;1289;22051;-58
2023/08/28 00:24:11;;;;;;;4.70;3.70;;;;;;;28.89;45.58;99938.69;107847;1289;21999;-70
2023/08/28 00:26:37;;;;;;;5.30;3.20;;;;;;;28.89;45.31;99939.46;107824;1283;22014;-58
2023/08/28 00:29:02;;;;;;;7.60;3.50;;;;;;;28.89;45.26;99941.77;107806;1289;22002;-58
2023/08/28 00:31:28;;;;;;;7.40;3.50;;;;;;;28.91;45.40;99939.86;107821;1286;22028;-58
2023/08/28 00:33:54;;;;;;;11.30;3.70;;;;;;;28.91;45.52;99939.11;107819;1280;22035;-70
2023/08/28 00:36:20;;;;;;;5.30;3.50;;;;;;;28.88;45.72;99940.60;107829;1282;21990;-58
2023/08/28 00:38:45;;;;;;;8.60;3.90;;;;;;;28.85;45.69;99942.15;107830;1279;21995;-58
2023/08/28 00:41:11;;;;;;;9.60;4.30;;;;;;;28.83;46.07;99940.23;107850;1286;21987;-70
2023/08/28 00:43:37;;;;;;;6.70;3.40;;;;;;;28.79;46.03;99939.45;107872;1286;21992;-58
2023/08/28 00:46:03;;;;;;;6.10;3.40;;;;;;;28.76;46.15;99944.08;107835;1290;22031;-70
2023/08/28 00:48:29;;;;;;;6.70;3.60;;;;;;;28.72;45.99;99942.81;107835;1290;23644;-70
2023/08/28 00:50:54;;;;;;;6.90;3.70;;;;;;;28.70;46.14;99940.69;107931;1290;22461;-71
2023/08/28 00:53:20;;;;;;;5.90;3.70;;;;;;;28.67;46.16;99942.96;107796;1288;22006;-70
2023/08/28 00:55:45;;;;;;;5.70;3.40;;;;;;;28.65;45.82;99943.33;107787;1289;21995;-58
2023/08/28 00:58:11;;;;;;;5.90;3.70;;;;;;;28.66;45.70;99942.55;107770;1286;21992;-70
2023/08/28 01:00:36;;;;;;;7.80;3.60;;;;;;;28.66;45.30;99940.57;107723;1291;21996;-70
2023/08/28 01:03:03;;;;;;;6.30;3.60;;;;;;;28.66;45.09;99938.55;107681;1280;22050;-59
2023/08/28 01:05:35;;;;;;;7.40;3.70;;;;;;;28.65;44.87;99939.55;107711;1283;22003;-58
2023/08/28 01:08:24;;;;;;;7.90;4.30;;;;;;;28.65;44.72;99935.38;107732;1289;22031;-58
2023/08/28 01:10:53;;;;;;;9.10;3.80;;;;;;;28.68;44.39;99933.63;107665;1286;21998;-57
2023/08/28 01:13:22;;;;;;;6.50;3.90;;;;;;;28.69;44.49;99933.74;107930;1289;22108;-70
2023/08/28 01:15:49;;;;;;;7.60;3.90;;;;;;;28.71;44.07;99935.21;107695;1291;21993;-58
2023/08/28 01:18:14;;;;;;;8.30;4.20;;;;;;;28.72;43.97;99935.98;107663;1290;22007;-70
2023/08/28 01:20:40;;;;;;;8.00;4.60;;;;;;;28.73;43.86;99937.02;107779;1282;21995;-70
2023/08/28 01:23:23;;;;;;;8.30;3.60;;;;;;;28.72;43.84;99938.74;107802;1286;22001;-61
2023/08/28 01:25:49;;;;;;;8.10;4.30;;;;;;;28.69;43.81;99935.02;107878;1291;22002;-71
2023/08/28 01:28:15;;;;;;;6.40;3.50;;;;;;;28.68;43.65;99933.73;107808;1288;21993;-58
2023/08/28 01:30:40;;;;;;;7.60;3.90;;;;;;;28.68;43.76;99933.12;107923;1289;21999;-66
2023/08/28 01:33:06;;;;;;;7.30;4.30;;;;;;;28.69;43.72;99933.77;107921;1289;21996;-71
2023/08/28 01:35:31;;;;;;;9.60;3.70;;;;;;;28.66;43.81;99932.93;107850;1285;21985;-59
2023/08/28 01:38:01;;;;;;;8.90;4.30;;;;;;;28.60;43.75;99927.55;107925;1286;21996;-58
2023/08/28 01:40:37;;;;;;;6.80;4.20;;;;;;;28.55;43.54;99927.37;107655;1286;22006;-70
2023/08/28 01:43:02;;;;;;;10.10;4.00;;;;;;;28.49;43.68;99930.78;107748;1286;22010;-70
2023/08/28 01:45:28;;;;;;;6.30;4.60;;;;;;;28.44;43.68;99931.60;107784;1286;22036;-60
2023/08/28 01:47:54;;;;;;;5.30;3.80;;;;;;;28.40;43.61;99934.66;107867;1289;22006;-70
2023/08/28 01:50:19;;;;;;;8.50;4.10;;;;;;;28.38;43.58;99938.36;107887;1286;21994;-58
2023/08/28 01:52:45;;;;;;;7.40;4.00;;;;;;;28.35;43.53;99940.36;107724;1289;22003;-59
2023/08/28 01:55:11;;;;;;;8.00;4.40;;;;;;;28.33;43.64;99936.53;107914;1286;21990;-70
2023/08/28 01:57:36;;;;;;;37.90;5.50;;;;;;;28.31;43.64;99937.13;107645;1279;22121;-68
2023/08/28 02:00:02;;;;;;;13.90;4.50;;;;;;;28.29;43.71;99941.33;107718;1286;22036;-70
2023/08/28 02:02:28;;;;;;;11.10;4.30;;;;;;;28.28;43.75;99942.98;107676;1279;21987;-70
2023/08/28 02:04:53;;;;;;;9.80;3.90;;;;;;;28.31;43.99;99942.02;107642;1280;21992;-58
2023/08/28 02:07:19;;;;;;;10.60;3.80;;;;;;;28.34;44.02;99941.55;107849;1291;21990;-60
2023/08/28 02:09:44;;;;;;;8.20;3.60;;;;;;;28.37;44.01;99940.06;107862;1286;21989;-58
2023/08/28 02:12:10;;;;;;;8.80;4.40;;;;;;;28.37;43.95;99939.65;107642;1286;22023;-60
2023/08/28 02:14:35;;;;;;;8.50;3.90;;;;;;;28.36;43.96;99933.83;107830;1291;22110;-58
2023/08/28 02:17:01;;;;;;;11.30;4.30;;;;;;;28.34;43.95;99928.88;107877;1286;22057;-70
2023/08/28 02:19:27;;;;;;;17.20;4.60;;;;;;;28.33;43.93;99926.08;107800;1286;22000;-70
2023/08/28 02:21:52;;;;;;;13.20;4.10;;;;;;;28.32;43.87;99924.63;107705;1286;24330;-58
2023/08/28 02:24:18;;;;;;;11.80;4.40;;;;;;;28.28;43.81;99926.05;107708;1287;21993;-70
2023/08/28 02:26:43;;;;;;;8.80;3.80;;;;;;;28.25;43.73;99927.41;107783;1286;22059;-70
2023/08/28 02:29:09;;;;;;;12.60;4.00;;;;;;;28.23;43.80;99932.30;107765;1289;21995;-70
2023/08/28 02:31:35;;;;;;;7.40;3.70;;;;;;;28.22;43.78;99932.46;107781;1290;22003;-70
2023/08/28 02:34:00;;;;;;;6.60;3.70;;;;;;;28.20;43.81;99931.69;107588;1279;216894;-70
2023/08/28 02:36:26;;;;;;;11.70;4.40;;;;;;;28.19;43.85;99931.79;107904;1286;22164;-57
2023/08/28 02:38:52;;;;;;;12.20;4.20;;;;;;;28.19;43.94;99935.06;108095;1289;23650;-60
2023/08/28 02:41:17;;;;;;;9.00;4.40;;;;;;;28.19;43.85;99938.79;108046;1280;21984;-70
2023/08/28 02:43:43;;;;;;;7.00;4.10;;;;;;;28.21;43.95;99944.75;108059;1289;22006;-59
2023/08/28 02:46:08;;;;;;;10.50;4.20;;;;;;;28.23;44.08;99950.21;107838;1284;22177;-59
2023/08/28 02:48:34;;;;;;;12.60;4.20;;;;;;;28.24;44.12;99951.71;107995;1289;22111;-70
2023/08/28 02:50:59;;;;;;;8.00;4.00;;;;;;;28.25;44.15;99952.76;107895;1284;22003;-71
2023/08/28 02:53:25;;;;;;;8.80;5.10;;;;;;;28.23;44.15;99956.02;107779;1285;22029;-59
2023/08/28 02:56:25;;;;;;;6.30;3.90;;;;;;;28.20;44.27;99955.14;107795;1286;21988;-59
2023/08/28 02:58:54;;;;;;;6.00;3.80;;;;;;;28.17;44.43;99952.88;107853;1286;21992;-70
2023/08/28 03:01:20;;;;;;;9.10;4.00;;;;;;;28.12;44.40;99952.59;107971;1286;23770;-59
2023/08/28 03:03:47;;;;;;;8.90;4.80;;;;;;;28.08;44.71;99954.25;108099;1284;23705;-59
2023/08/28 03:06:13;;;;;;;12.60;4.90;;;;;;;28.05;44.69;99953.59;108061;1289;22016;-71
2023/08/28 03:08:39;;;;;;;8.20;4.40;;;;;;;28.01;44.94;99956.64;108089;1281;22001;-71
2023/08/28 03:11:04;;;;;;;9.20;4.10;;;;;;;27.97;44.88;99958.54;108118;1289;21991;-71
2023/08/28 03:13:30;;;;;;;8.20;4.30;;;;;;;27.91;44.93;99960.29;108033;1284;21989;-71
2023/08/28 03:15:55;;;;;;;9.30;3.70;;;;;;;27.87;44.99;99962.67;108022;1284;22000;-71
2023/08/28 03:18:21;;;;;;;12.50;4.10;;;;;;;27.84;45.11;99963.13;108036;1284;22080;-64
2023/08/28 03:20:47;;;;;;;9.30;4.30;;;;;;;27.81;45.09;99962.11;108074;1287;21996;-59
2023/08/28 03:23:12;;;;;;;11.50;4.40;;;;;;;27.78;45.18;99962.42;107758;1286;21993;-59
2023/08/28 03:25:38;;;;;;;8.50;4.80;;;;;;;27.74;45.45;99963.30;107725;1280;22006;-69
2023/08/28 03:28:07;;;;;;;9.80;4.10;;;;;;;27.72;45.63;99962.59;107747;1286;22052;-58
2023/08/28 03:30:33;;;;;;;12.80;4.00;;;;;;;27.78;45.74;99964.05;107933;1286;22013;-58
2023/08/28 03:32:59;;;;;;;13.80;4.40;;;;;;;27.86;45.66;99964.70;107680;1290;22090;-58
2023/08/28 03:35:25;;;;;;;11.10;3.90;;;;;;;27.93;45.63;99968.41;107679;1290;22055;-58
2023/08/28 03:37:51;;;;;;;9.10;3.70;;;;;;;27.98;45.48;99969.38;107735;1290;22000;-58
2023/08/28 03:40:16;;;;;;;12.00;4.30;;;;;;;28.03;45.39;99972.34;107795;1285;22000;-71
2023/08/28 03:42:42;;;;;;;9.20;4.60;;;;;;;28.08;45.45;99968.63;107717;1285;22001;-58
2023/08/28 03:45:08;;;;;;;9.00;4.10;;;;;;;28.13;45.27;99967.48;107941;1286;22000;-58
2023/08/28 03:47:34;;;;;;;11.60;4.30;;;;;;;28.17;45.24;99968.75;107811;1287;22003;-58
2023/08/28 03:49:59;;;;;;;8.30;3.70;;;;;;;28.21;45.14;99966.77;107972;1289;21987;-71
2023/08/28 03:52:25;;;;;;;11.30;4.50;;;;;;;28.25;45.15;99967.89;108053;1287;22001;-58
2023/08/28 03:54:51;;;;;;;13.00;5.00;;;;;;;28.26;45.03;99967.56;107795;1290;21991;-57
2023/08/28 03:57:17;;;;;;;9.80;4.50;;;;;;;28.29;45.17;99969.27;107856;1286;22002;-71
2023/08/28 03:59:43;;;;;;;10.50;4.90;;;;;;;28.32;45.09;99971.35;107810;1286;21993;-70
2023/08/28 04:02:09;;;;;;;15.20;5.10;;;;;;;28.35;44.98;99971.77;107813;1289;22004;-58
2023/08/28 04:04:34;;;;;;;23.20;5.40;;;;;;;28.40;44.99;99970.61;107866;1290;21990;-70
2023/08/28 04:07:02;;;;;;;16.80;5.00;;;;;;;28.44;44.90;99969.52;107950;1283;21987;-58
2023/08/28 04:09:28;;;;;;;15.60;4.30;;;;;;;28.49;44.89;99967.63;108301;1286;21986;-58
2023/08/28 04:11:54;;;;;;;16.50;5.10;;;;;;;28.55;44.89;99963.99;108087;1283;23304;-72
2023/08/28 04:14:20;;;;;;;15.50;5.50;;;;;;;28.60;44.85;99963.09;108143;1290;23616;-58
2023/08/28 04:16:46;;;;;;;14.00;4.70;;;;;;;28.67;44.85;99965.56;108012;1281;21995;-71
2023/08/28 04:19:11;;;;;;;13.10;5.10;;;;;;;28.74;44.81;99964.71;107940;1290;22033;-69
2023/08/28 04:21:37;;;;;;;16.90;5.30;;;;;;;28.81;44.72;99965.65;107839;1283;22036;-56
2023/08/28 04:24:03;;;;;;;18.90;4.30;;;;;;;28.88;44.64;99967.35;108011;1286;22160;-56
2023/08/28 04:26:30;;;;;;;19.00;4.70;;;;;;;28.95;44.56;99968.52;107838;1289;22023;-57
2023/08/28 04:28:56;;;;;;;14.10;5.20;;;;;;;29.03;44.64;99968.48;107994;1286;22004;-71
2023/08/28 04:31:22;;;;;;;14.20;5.30;;;;;;;29.12;44.67;99970.70;108015;1283;22003;-70
2023/08/28 04:33:47;;;;;;;17.00;4.80;;;;;;;29.20;44.49;99968.77;107965;1289;22043;-57
2023/08/28 04:36:13;;;;;;;16.50;4.80;;;;;;;29.29;44.42;99971.19;107832;1285;21995;-56
2023/08/28 04:38:38;;;;;;;31.30;5.70;;;;;;;29.39;44.44;99974.00;107900;1290;21996;-69
2023/08/28 04:41:04;;;;;;;36.80;6.10;;;;;;;29.49;44.39;99975.02;107903;1289;21993;-70
2023/08/28 04:43:29;;;;;;;12.50;4.50;;;;;;;29.57;44.30;99973.88;107922;1283;22004;-70
2023/08/28 04:45:55;;;;;;;9.00;4.30;;;;;;;29.62;44.12;99973.04;107807;1286;21990;-58
2023/08/28 04:48:21;;;;;;;11.40;4.40;;;;;;;29.67;44.06;99972.70;107793;1290;21996;-59
2023/08/28 04:50:47;;;;;;;12.40;4.40;;;;;;;29.72;43.93;99967.39;107753;1286;21999;-70
2023/08/28 04:53:12;;;;;;;8.10;4.40;;;;;;;29.76;43.79;99963.88;107915;1283;21994;-69
2023/08/28 04:55:38;;;;;;;11.80;4.60;;;;;;;29.82;43.53;99962.70;108088;1288;21990;-59
2023/08/28 04:58:05;;;;;;;5.80;4.50;;;;;;;29.90;43.46;99965.42;107877;1284;21995;-58
2023/08/28 05:00:31;;;;;;;10.50;4.80;;;;;;;29.99;43.49;99963.80;107775;1286;22231;-70
2023/08/28 05:02:56;;;;;;;8.10;4.70;;;;;;;30.09;43.27;99960.77;107845;1290;22016;-70
2023/08/28 05:05:22;;;;;;;18.10;5.20;;;;;;;30.20;43.10;99960.40;107944;1289;21995;-58
2023/08/28 05:07:48;;;;;;;15.40;5.40;;;;;;;30.32;43.15;99961.33;108018;1280;22931;-72
2023/08/28 05:10:15;;;;;;;13.60;4.60;;;;;;;30.46;43.03;99961.20;108049;1286;21997;-58
2023/08/28 05:12:41;;;;;;;9.00;4.80;;;;;;;30.60;42.67;99963.84;108140;1287;23055;-59
2023/08/28 05:15:08;;;;;;;10.10;4.90;;;;;;;30.75;42.69;99962.84;108000;1286;22027;-60
2023/08/28 05:17:34;;;;;;;14.20;5.50;;;;;;;30.89;42.36;99966.55;107892;1279;21993;-68
2023/08/28 05:20:00;;;;;;;14.40;6.40;;;;;;;31.03;41.99;99971.67;107737;1286;21993;-69
2023/08/28 05:22:25;;;;;;;12.00;5.50;;;;;;;31.17;41.80;99969.69;107772;1286;21994;-59
2023/08/28 05:24:51;;;;;;;15.60;5.80;;;;;;;31.34;41.68;99969.45;107733;1286;21965;-69
2023/08/28 05:27:16;;;;;;;18.50;6.10;;;;;;;31.55;41.41;99969.41;107810;1283;21997;-59
2023/08/28 05:29:44;;;;;;;11.80;5.10;;;;;;;31.79;41.43;99967.24;107758;1286;22001;-69
2023/08/28 05:32:09;;;;;;;16.20;6.10;;;;;;;31.99;41.00;99963.98;107935;1289;21992;-58
2023/08/28 05:34:35;;;;;;;16.70;6.40;;;;;;;32.16;40.48;99961.91;108158;1287;22009;-59
2023/08/28 05:37:00;;;;;;;14.60;5.40;;;;;;;32.34;40.70;99959.85;108058;1290;22033;-60
2023/08/28 05:39:26;;;;;;;13.90;7.30;;;;;;;32.51;40.21;99959.77;107975;1289;22238;-60
2023/08/28 05:41:52;;;;;;;17.20;6.50;;;;;;;32.69;40.18;99958.02;108051;1290;21993;-71
2023/08/28 05:44:17;;;;;;;13.20;5.00;;;;;;;32.89;39.68;99953.66;108123;1286;22002;-59
2023/08/28 05:46:43;;;;;;;9.30;4.70;;;;;;;33.07;39.18;99950.23;108057;1285;21995;-71
2023/08/28 05:49:08;;;;;;;10.90;4.80;;;;;;;33.22;38.73;99951.42;108080;1285;21990;-70
2023/08/28 05:51:34;;;;;;;9.30;4.70;;;;;;;33.32;38.23;99949.08;107993;1289;21994;-58
2023/08/28 05:54:00;;;;;;;7.00;4.00;;;;;;;33.42;38.37;99945.06;107815;1290;21993;-70
2023/08/28 05:56:25;;;;;;;17.60;7.00;;;;;;;33.54;38.21;99939.93;107685;1290;21995;-69
2023/08/28 05:58:51;;;;;;;14.10;4.90;;;;;;;33.66;37.94;99937.94;107766;1290;22108;-69
2023/08/28 06:01:16;;;;;;;7.40;4.90;;;;;;;33.82;37.82;99933.56;107810;1289;22052;-69
2023/08/28 06:03:42;;;;;;;9.80;4.20;;;;;;;33.98;37.59;99931.15;107820;1286;21995;-71
2023/08/28 06:06:08;;;;;;;7.70;3.40;;;;;;;34.12;37.32;99927.69;107791;1289;21985;-59
2023/08/28 06:08:34;;;;;;;12.70;4.30;;;;;;;34.21;36.88;99929.56;107756;1286;21990;-71
2023/08/28 06:10:59;;;;;;;10.20;4.30;;;;;;;34.32;37.22;99929.10;107861;1283;21989;-71
2023/08/28 06:13:25;;;;;;;12.90;3.90;;;;;;;34.50;36.96;99930.71;107797;1289;22033;-72
2023/08/28 06:15:51;;;;;;;5.40;3.60;;;;;;;34.60;36.21;99934.66;107777;1289;22031;-69
2023/08/28 06:18:16;;;;;;;9.60;3.90;;;;;;;34.68;36.29;99930.84;107787;1283;21998;-71
2023/08/28 06:20:42;;;;;;;7.90;3.60;;;;;;;34.77;35.55;99924.46;107807;1289;21993;-59
2023/08/28 06:23:07;;;;;;;8.00;4.00;;;;;;;34.86;35.59;99919.94;107764;1291;22459;-59
2023/08/28 06:25:33;;;;;;;13.40;4.10;;;;;;;34.93;35.55;99923.71;107771;1282;22266;-61
2023/08/28 06:27:59;;;;;;;7.20;3.70;;;;;;;35.05;35.71;99924.23;107794;1286;21993;-70
2023/08/28 06:30:24;;;;;;;5.50;3.70;;;;;;;35.16;35.27;99924.06;107723;1289;22000;-71
2023/08/28 06:32:50;;;;;;;5.60;3.40;;;;;;;35.26;35.14;99925.88;107734;1286;23653;-71
2023/08/28 06:35:15;;;;;;;5.80;3.50;;;;;;;35.37;34.77;99926.20;107978;1287;22025;-59
2023/08/28 06:37:41;;;;;;;5.20;3.60;;;;;;;35.46;34.88;99922.75;108005;1286;22056;-59
2023/08/28 06:40:08;;;;;;;6.70;4.40;;;;;;;35.63;34.96;99923.02;107836;1289;21993;-59
2023/08/28 06:42:35;;;;;;;16.30;7.10;;;;;;;35.82;34.63;99926.45;108560;1289;22003;-59
2023/08/28 06:45:00;;;;;;;7.80;4.90;;;;;;;35.96;34.37;99929.29;107809;1283;22031;-71
2023/08/28 06:47:26;;;;;;;6.10;4.00;;;;;;;36.11;34.72;99926.19;107817;1283;21993;-59
2023/08/28 06:49:51;;;;;;;5.80;3.90;;;;;;;36.35;34.48;99924.68;107832;1286;21990;-70
2023/08/28 06:52:17;;;;;;;7.20;3.80;;;;;;;36.47;33.62;99924.56;107817;1289;21993;-59
2023/08/28 06:54:43;;;;;;;7.60;3.70;;;;;;;36.55;33.66;99922.86;107892;1289;21996;-72
2023/08/28 06:57:09;;;;;;;5.90;3.60;;;;;;;36.65;33.55;99924.40;107874;1290;22049;-71
2023/08/28 06:59:34;;;;;;;7.30;3.80;;;;;;;36.75;33.65;99919.15;107850;1289;22030;-59
2023/08/28 07:02:00;;;;;;;8.00;3.70;;;;;;;36.86;32.98;99916.85;107792;1287;21992;-59
2023/08/28 07:04:25;;;;;;;5.80;3.30;;;;;;;36.99;33.03;99919.84;107764;1286;23095;-59
2023/08/28 07:06:51;;;;;;;5.80;3.40;;;;;;;37.11;32.76;99923.27;107798;1287;21990;-59
2023/08/28 07:09:16;;;;;;;4.70;3.00;;;;;;;37.20;32.94;99928.23;107844;1286;22458;-59
2023/08/28 07:11:43;;;;;;;7.30;3.30;;;;;;;37.37;32.86;99927.91;107911;1290;22132;-71
2023/08/28 07:14:09;;;;;;;7.50;3.40;;;;;;;37.57;32.58;99927.89;107921;1290;21992;-60
2023/08/28 07:16:35;;;;;;;7.70;3.80;;;;;;;37.80;32.26;99927.01;107803;1289;21993;-71
2023/08/28 07:19:00;;;;;;;6.20;3.10;;;;;;;37.97;32.23;99924.77;107835;1286;21993;-59
2023/08/28 07:21:26;;;;;;;6.80;3.20;;;;;;;38.24;32.17;99924.73;107807;1287;21980;-59
2023/08/28 07:23:52;;;;;;;4.40;2.70;;;;;;;38.45;31.71;99926.58;107768;1290;22002;-71
2023/08/28 07:26:18;;;;;;;7.80;3.50;;;;;;;38.55;31.34;99930.08;107752;1290;22463;-60
2023/08/28 07:28:44;;;;;;;4.30;2.70;;;;;;;38.63;30.88;99935.43;107791;1290;22460;-59
2023/08/28 07:31:10;;;;;;;4.60;3.10;;;;;;;38.66;30.95;99935.64;107762;1286;22003;-59
2023/08/28 07:33:37;;;;;;;6.40;3.80;;;;;;;38.65;30.62;99938.85;107807;1287;21996;-72
2023/08/28 07:36:03;;;;;;;10.80;3.10;;;;;;;38.73;30.52;99942.09;107813;1286;22005;-60
2023/08/28 07:38:29;;;;;;;8.30;3.70;;;;;;;38.83;30.42;99940.13;107863;1286;21996;-71
2023/08/28 07:40:54;;;;;;;8.60;3.40;;;;;;;38.90;30.81;99937.12;107791;1290;23727;-59
2023/08/28 07:43:20;;;;;;;7.80;3.50;;;;;;;39.08;30.78;99929.69;107860;1289;23514;-72
2023/08/28 07:45:45;;;;;;;6.50;3.80;;;;;;;39.31;30.55;99923.49;107898;1282;23698;-59
2023/08/28 07:48:11;;;;;;;9.60;3.40;;;;;;;39.49;30.10;99920.91;107931;1285;22032;-71
2023/08/28 07:50:37;;;;;;;4.70;3.20;;;;;;;39.54;29.98;99921.67;107895;1289;22085;-59
2023/08/28 07:53:03;;;;;;;6.10;3.20;;;;;;;39.65;30.40;99920.09;107800;1290;22462;-60
2023/08/28 07:55:29;;;;;;;6.00;3.00;;;;;;;39.91;30.28;99922.74;107731;1286;21995;-72
2023/08/28 07:57:55;;;;;;;14.20;3.30;;;;;;;40.10;29.25;99919.34;107879;1289;24337;-59
2023/08/28 08:00:21;;;;;;;5.70;3.40;;;;;;;40.13;29.03;99916.98;107813;1283;21990;-71
2023/08/28 08:02:49;;;;;;;6.50;3.50;;;;;;;40.14;28.84;99913.23;107793;1279;21988;-71
2023/08/28 08:05:14;;;;;;;7.30;3.00;;;;;;;40.10;28.45;99908.99;107829;1286;23698;-60
2023/08/28 08:07:40;;;;;;;15.60;3.70;;;;;;;40.02;28.05;99910.08;107878;1290;23638;-60
2023/08/28 08:10:10;;;;;;;8.20;3.30;;;;;;;39.96;28.28;99907.92;107795;1286;22247;-71
2023/08/28 08:12:38;;;;;;;15.70;4.30;;;;;;;40.03;28.68;99903.29;107806;1287;22960;-71
2023/08/28 08:15:06;;;;;;;8.40;4.30;;;;;;;40.21;28.91;99901.73;107932;1290;21993;-70
2023/08/28 08:17:32;;;;;;;12.40;4.90;;;;;;;40.49;28.75;99895.95;107928;1289;23739;-59
2023/08/28 08:19:58;;;;;;;8.30;3.40;;;;;;;40.80;28.33;99892.57;107879;1290;21994;-71
2023/08/28 08:22:24;;;;;;;7.40;3.50;;;;;;;40.95;27.93;99887.67;107814;1290;22013;-60
2023/08/28 08:24:51;;;;;;;6.40;3.20;;;;;;;41.07;28.42;99889.60;107671;1290;22022;-59
2023/08/28 08:27:17;;;;;;;6.00;3.90;;;;;;;41.22;28.31;99882.80;107770;1290;22118;-59
2023/08/28 08:29:43;;;;;;;9.10;3.60;;;;;;;41.40;27.81;99884.62;107791;1283;21994;-59
2023/08/28 08:32:08;;;;;;;6.20;3.70;;;;;;;41.53;27.59;99883.30;107768;1289;21989;-59
2023/08/28 08:34:34;;;;;;;7.00;3.40;;;;;;;41.60;27.61;99881.89;107744;1289;22170;-71
2023/08/28 08:36:59;;;;;;;9.00;3.60;;;;;;;41.63;27.48;99877.55;107769;1287;21991;-60
2023/08/28 08:39:25;;;;;;;12.30;4.00;;;;;;;41.71;26.77;99872.95;107771;1278;21995;-59
2023/08/28 08:41:51;;;;;;;10.00;3.50;;;;;;;41.87;27.11;99868.23;107831;1290;22086;-69
2023/08/28 08:44:16;;;;;;;7.80;4.10;;;;;;;42.05;26.62;99865.27;107783;1290;21997;-60
2023/08/28 08:46:44;;;;;;;7.40;4.10;;;;;;;42.13;27.26;99862.99;107898;1283;22003;-59
2023/08/28 08:49:11;;;;;;;7.60;3.30;;;;;;;42.36;27.21;99864.27;107814;1288;22001;-59
2023/08/28 08:51:37;;;;;;;7.90;3.10;;;;;;;42.58;26.63;99868.54;107865;1290;22000;-70
2023/08/28 08:54:09;;;;;;;10.30;3.90;;;;;;;42.62;26.21;99867.21;107761;1290;22015;-59
2023/08/28 08:56:34;;;;;;;9.80;3.70;;;;;;;42.67;26.25;99863.06;107820;1289;22052;-59
2023/08/28 08:59:00;;;;;;;10.40;4.20;;;;;;;42.82;25.86;99863.16;107810;1286;21994;-70
2023/08/28 09:01:26;;;;;;;6.40;3.90;;;;;;;42.85;25.78;99859.84;107790;1290;21995;-59
2023/08/28 09:03:51;;;;;;;9.20;4.00;;;;;;;42.77;25.37;99858.73;107798;1289;21989;-59
2023/08/28 09:06:17;;;;;;;7.70;3.60;;;;;;;42.72;25.64;99863.06;107791;1290;21992;-70
2023/08/28 09:08:43;;;;;;;8.40;3.20;;;;;;;42.74;25.60;99863.61;107863;1283;23659;-70
2023/08/28 09:11:08;;;;;;;6.70;3.60;;;;;;;42.85;25.51;99864.16;107801;1286;22024;-61
2023/08/28 09:13:37;;;;;;;10.10;3.50;;;;;;;42.94;25.39;99859.59;107878;1290;21994;-69
2023/08/28 09:16:04;;;;;;;9.00;4.00;;;;;;;43.05;24.55;99850.89;107772;1281;22024;-70
2023/08/28 09:18:30;;;;;;;8.40;3.70;;;;;;;43.11;24.44;99852.55;107803;1290;21996;-60
2023/08/28 09:21:09;;;;;;;6.50;3.40;;;;;;;43.04;24.67;99852.98;107817;1285;21981;-70
2023/08/28 09:23:40;;;;;;;11.20;3.90;;;;;;;42.99;24.64;99854.00;107778;1289;22844;-61
2023/08/28 09:26:05;;;;;;;7.50;3.30;;;;;;;43.04;24.72;99852.44;107789;1278;21990;-60
2023/08/28 09:28:31;;;;;;;12.20;3.90;;;;;;;43.14;24.80;99852.99;107767;1278;21991;-70
2023/08/28 09:30:57;;;;;;;7.90;3.40;;;;;;;43.21;24.78;99852.75;107796;1286;23746;-61
2023/08/28 09:33:22;;;;;;;14.30;2.90;;;;;;;43.28;24.57;99850.57;107816;1286;21997;-70
2023/08/28 09:35:48;;;;;;;6.30;4.20;;;;;;;43.43;24.65;99845.25;107828;1280;21996;-70
2023/08/28 09:38:14;;;;;;;8.60;3.90;;;;;;;43.69;24.75;99844.09;107791;1288;21991;-61
2023/08/28 09:40:40;;;;;;;8.20;3.60;;;;;;;43.81;23.97;99842.11;107812;1290;21982;-61
2023/08/28 09:43:12;;;;;;;4.90;3.20;;;;;;;43.81;23.27;99841.61;107853;1290;21993;-61
2023/08/28 09:45:37;;;;;;;7.50;3.20;;;;;;;43.79;24.12;99838.82;107812;1280;22005;-61
2023/08/28 09:48:04;;;;;;;7.70;2.90;;;;;;;43.89;24.36;99839.08;107792;1279;21995;-60
2023/08/28 09:50:31;;;;;;;7.10;3.70;;;;;;;44.05;23.91;99839.45;107786;1287;22000;-71
2023/08/28 09:53:08;;;;;;;6.10;3.30;;;;;;;44.22;24.03;99834.52;107788;1289;22638;-61
2023/08/28 09:55:45;;;;;;;8.20;3.80;;;;;;;44.39;23.90;99827.99;107780;1290;21999;-70
2023/08/28 09:58:11;;;;;;;6.30;3.40;;;;;;;44.53;23.34;99827.36;107868;1289;23059;-61
2023/08/28 10:00:38;;;;;;;6.00;3.30;;;;;;;44.54;23.45;99824.77;107886;1280;21990;-70
2023/08/28 10:03:05;;;;;;;7.50;3.70;;;;;;;44.55;23.28;99827.61;107806;1285;21987;-64
2023/08/28 10:05:31;;;;;;;8.40;4.00;;;;;;;44.54;23.09;99824.66;107822;1279;22050;-70
2023/08/28 10:08:01;;;;;;;8.20;4.00;;;;;;;44.61;23.59;99829.63;107793;1289;22023;-61
2023/08/28 10:10:26;;;;;;;6.90;3.70;;;;;;;44.73;23.14;99829.65;107807;1290;21998;-61
2023/08/28 10:12:52;;;;;;;7.00;3.30;;;;;;;44.85;23.13;99825.24;107842;1288;21995;-70
2023/08/28 10:15:18;;;;;;;4.90;3.50;;;;;;;44.93;22.89;99823.90;107853;1287;22145;-61
2023/08/28 10:17:44;;;;;;;10.00;3.70;;;;;;;44.84;23.11;99827.05;107755;1290;21993;-70
2023/08/28 10:20:10;;;;;;;7.70;3.90;;;;;;;44.93;23.32;99820.34;107790;1289;22012;-61
2023/08/28 10:22:36;;;;;;;5.60;3.70;;;;;;;45.17;22.84;99819.09;107965;1290;22052;-71
2023/08/28 10:25:02;;;;;;;7.70;3.60;;;;;;;45.22;22.56;99823.14;107701;1287;23031;-70
2023/08/28 10:27:28;;;;;;;8.10;4.00;;;;;;;45.25;22.54;99823.88;107788;1289;21997;-61
2023/08/28 10:29:53;;;;;;;8.60;3.70;;;;;;;45.24;22.38;99822.06;107997;1290;21993;-61
2023/08/28 10:32:20;;;;;;;7.20;3.80;;;;;;;45.26;22.52;99822.07;107859;1287;22011;-69
2023/08/28 10:34:45;;;;;;;11.40;4.50;;;;;;;45.28;22.82;99822.89;107881;1290;23297;-71
2023/08/28 10:37:13;;;;;;;10.40;4.20;;;;;;;45.20;22.27;99819.62;107791;1288;23618;-71
2023/08/28 10:39:42;;;;;;;8.40;3.90;;;;;;;45.18;22.75;99811.32;107833;1290;23772;-70
2023/08/28 10:42:17;;;;;;;9.00;3.90;;;;;;;45.35;22.83;99810.98;107873;1290;22131;-70
2023/08/28 10:44:43;;;;;;;5.20;3.10;;;;;;;45.44;22.92;99812.08;107847;1290;22026;-71
2023/08/28 10:47:14;;;;;;;7.40;3.90;;;;;;;45.68;22.49;99810.33;107869;1290;22036;-60
2023/08/28 10:49:39;;;;;;;7.80;3.60;;;;;;;45.85;22.06;99809.11;107946;1290;21986;-71
2023/08/28 10:52:06;;;;;;;6.30;4.20;;;;;;;45.92;21.82;99806.88;107852;1290;22006;-70
2023/08/28 10:54:44;;;;;;;8.40;3.70;;;;;;;45.91;22.03;99802.71;107865;1290;23856;-61
2023/08/28 10:57:30;;;;;;;7.00;4.00;;;;;;;45.98;22.19;99802.52;107807;1283;22001;-61
2023/08/28 11:00:00;;;;;;;13.60;3.70;;;;;;;46.12;21.84;99802.45;107827;1290;21989;-71
2023/08/28 11:02:47;;;;;;;7.80;4.30;;;;;;;46.17;21.79;99799.98;107974;1290;22762;-71
2023/08/28 11:05:14;;;;;;;5.70;3.40;;;;;;;46.24;22.20;99796.17;107848;1288;23856;-61
2023/08/28 11:07:43;;;;;;;5.00;3.60;;;;;;;46.38;21.72;99791.78;107885;1290;21995;-69
2023/08/28 11:10:19;;;;;;;;;;;;;;;46.49;21.46;99789.12;107828;1290;23599;-70
2023/08/28 11:12:56;;;;;;;6.20;3.60;;;;;;;46.49;21.63;99790.29;107791;1290;22001;-71
2023/08/28 11:15:41;;;;;;;6.20;3.50;;;;;;;46.47;21.47;99789.45;107916;1283;21995;-60
2023/08/28 11:18:27;;;;;;;8.50;4.20;;;;;;;46.42;21.53;99788.69;107843;1285;22019;-70
2023/08/28 11:20:54;;;;;;;7.60;3.80;;;;;;;46.56;21.69;99788.02;107812;1290;22030;-70